sensor_id;sensor_type;location;lat;lon;timestamp;P1;durP1;ratioP1;P2;durP2;ratioP2
17052;SDS011;8643;48.824;11.422;2022-08-05T00:01:30;7.07;;;3.47;;
17052;SDS011;8643;48.824;11.422;2022-08-05T00:04:15;6.30;;;3.72;;
17052;SDS011;8643;48.824;11.422;2022-08-05T00:06:43;5.95;;;3.67;;
17052;SDS011;8643;48.824;11.422;2022-08-05T00:09:17;7.25;;;3.75;;
17052;SDS011;8643;48.824;11.422;2022-08-05T00:11:47;5.07;;;3.55;;
17052;SDS011;8643;48.824;11.422;2022-08-05T00:14:25;4.07;;;3.67;;
17052;SDS011;8643;48.824;11.422;2022-08-05T00:16:54;4.03;;;3.63;;
17052;SDS011;8643;48.824;11.422;2022-08-05T00:19:27;4.53;;;3.65;;
17052;SDS011;8643;48.824;11.422;2022-08-05T00:22:10;4.57;;;3.53;;
17052;SDS011;8643;48.824;11.422;2022-08-05T00:24:43;4.10;;;3.70;;
17052;SDS011;8643;48.824;11.422;2022-08-05T00:27:21;7.55;;;3.95;;
17052;SDS011;8643;48.824;11.422;2022-08-05T00:30:02;6.57;;;3.53;;
17052;SDS011;8643;48.824;11.422;2022-08-05T00:32:36;5.80;;;3.40;;
17052;SDS011;8643;48.824;11.422;2022-08-05T00:35:06;4.45;;;3.70;;
17052;SDS011;8643;48.824;11.422;2022-08-05T00:37:35;5.72;;;3.50;;
17052;SDS011;8643;48.824;11.422;2022-08-05T00:40:19;4.10;;;3.50;;
17052;SDS011;8643;48.824;11.422;2022-08-05T00:42:55;5.57;;;3.65;;
17052;SDS011;8643;48.824;11.422;2022-08-05T00:45:26;5.10;;;3.70;;
17052;SDS011;8643;48.824;11.422;2022-08-05T00:48:05;4.22;;;3.83;;
17052;SDS011;8643;48.824;11.422;2022-08-05T00:50:35;5.82;;;3.88;;
17052;SDS011;8643;48.824;11.422;2022-08-05T00:53:09;4.25;;;3.65;;
17052;SDS011;8643;48.824;11.422;2022-08-05T00:55:58;7.63;;;3.88;;
17052;SDS011;8643;48.824;11.422;2022-08-05T00:58:27;3.97;;;3.67;;
17052;SDS011;8643;48.824;11.422;2022-08-05T01:00:56;4.25;;;3.90;;
17052;SDS011;8643;48.824;11.422;2022-08-05T01:03:25;4.10;;;3.45;;
17052;SDS011;8643;48.824;11.422;2022-08-05T01:05:58;4.82;;;3.92;;
17052;SDS011;8643;48.824;11.422;2022-08-05T01:08:29;6.50;;;4.47;;
17052;SDS011;8643;48.824;11.422;2022-08-05T01:11:14;5.43;;;3.80;;
17052;SDS011;8643;48.824;11.422;2022-08-05T01:14:01;5.65;;;3.70;;
17052;SDS011;8643;48.824;11.422;2022-08-05T01:16:37;5.43;;;3.63;;
17052;SDS011;8643;48.824;11.422;2022-08-05T01:19:29;4.38;;;3.80;;
17052;SDS011;8643;48.824;11.422;2022-08-05T01:22:31;4.63;;;3.92;;
17052;SDS011;8643;48.824;11.422;2022-08-05T01:28:30;5.93;;;3.97;;
17052;SDS011;8643;48.824;11.422;2022-08-05T01:31:07;4.35;;;3.92;;
17052;SDS011;8643;48.824;11.422;2022-08-05T01:33:41;5.88;;;4.20;;
17052;SDS011;8643;48.824;11.422;2022-08-05T01:36:19;4.38;;;3.90;;
17052;SDS011;8643;48.824;11.422;2022-08-05T01:38:54;5.15;;;3.80;;
17052;SDS011;8643;48.824;11.422;2022-08-05T01:41:28;4.35;;;3.85;;
17052;SDS011;8643;48.824;11.422;2022-08-05T01:44:04;5.03;;;4.53;;
17052;SDS011;8643;48.824;11.422;2022-08-05T01:46:35;4.38;;;3.97;;
17052;SDS011;8643;48.824;11.422;2022-08-05T01:49:09;4.50;;;4.10;;
17052;SDS011;8643;48.824;11.422;2022-08-05T01:51:51;5.10;;;4.30;;
17052;SDS011;8643;48.824;11.422;2022-08-05T01:54:25;5.32;;;4.10;;
17052;SDS011;8643;48.824;11.422;2022-08-05T01:57:11;4.47;;;4.07;;
17052;SDS011;8643;48.824;11.422;2022-08-05T02:00:08;4.97;;;4.10;;
17052;SDS011;8643;48.824;11.422;2022-08-05T02:02:40;5.28;;;4.28;;
17052;SDS011;8643;48.824;11.422;2022-08-05T02:05:21;4.35;;;4.00;;
17052;SDS011;8643;48.824;11.422;2022-08-05T02:07:59;8.52;;;4.28;;
17052;SDS011;8643;48.824;11.422;2022-08-05T02:10:30;4.35;;;3.95;;
17052;SDS011;8643;48.824;11.422;2022-08-05T02:13:07;6.45;;;4.40;;
17052;SDS011;8643;48.824;11.422;2022-08-05T02:15:45;5.75;;;4.47;;
17052;SDS011;8643;48.824;11.422;2022-08-05T02:18:22;4.88;;;3.97;;
17052;SDS011;8643;48.824;11.422;2022-08-05T02:21:02;4.22;;;3.90;;
17052;SDS011;8643;48.824;11.422;2022-08-05T02:23:41;6.25;;;4.05;;
17052;SDS011;8643;48.824;11.422;2022-08-05T02:26:15;7.93;;;3.95;;
17052;SDS011;8643;48.824;11.422;2022-08-05T02:28:51;4.47;;;4.07;;
17052;SDS011;8643;48.824;11.422;2022-08-05T02:31:27;4.60;;;3.85;;
17052;SDS011;8643;48.824;11.422;2022-08-05T02:34:02;4.45;;;4.05;;
17052;SDS011;8643;48.824;11.422;2022-08-05T02:36:35;12.32;;;4.70;;
17052;SDS011;8643;48.824;11.422;2022-08-05T02:39:11;4.47;;;4.07;;
17052;SDS011;8643;48.824;11.422;2022-08-05T02:41:47;4.38;;;3.97;;
17052;SDS011;8643;48.824;11.422;2022-08-05T02:44:27;5.88;;;4.32;;
17052;SDS011;8643;48.824;11.422;2022-08-05T02:46:58;6.15;;;4.47;;
17052;SDS011;8643;48.824;11.422;2022-08-05T02:49:30;4.85;;;4.35;;
17052;SDS011;8643;48.824;11.422;2022-08-05T02:52:08;4.63;;;4.07;;
17052;SDS011;8643;48.824;11.422;2022-08-05T02:54:55;8.20;;;4.22;;
17052;SDS011;8643;48.824;11.422;2022-08-05T02:57:31;4.78;;;4.28;;
17052;SDS011;8643;48.824;11.422;2022-08-05T03:00:22;6.20;;;4.43;;
17052;SDS011;8643;48.824;11.422;2022-08-05T03:02:53;6.45;;;4.43;;
17052;SDS011;8643;48.824;11.422;2022-08-05T03:05:25;4.45;;;4.05;;
17052;SDS011;8643;48.824;11.422;2022-08-05T03:08:14;5.47;;;4.30;;
17052;SDS011;8643;48.824;11.422;2022-08-05T03:10:55;7.88;;;4.35;;
17052;SDS011;8643;48.824;11.422;2022-08-05T03:13:44;5.35;;;4.63;;
17052;SDS011;8643;48.824;11.422;2022-08-05T03:16:17;5.05;;;4.55;;
17052;SDS011;8643;48.824;11.422;2022-08-05T03:18:48;6.50;;;4.53;;
17052;SDS011;8643;48.824;11.422;2022-08-05T03:21:17;12.00;;;4.70;;
17052;SDS011;8643;48.824;11.422;2022-08-05T03:23:47;5.82;;;4.93;;
17052;SDS011;8643;48.824;11.422;2022-08-05T03:26:16;7.53;;;4.53;;
17052;SDS011;8643;48.824;11.422;2022-08-05T03:28:57;6.00;;;4.20;;
17052;SDS011;8643;48.824;11.422;2022-08-05T03:31:26;9.85;;;4.65;;
17052;SDS011;8643;48.824;11.422;2022-08-05T03:34:17;6.00;;;4.57;;
17052;SDS011;8643;48.824;11.422;2022-08-05T03:36:49;7.45;;;4.80;;
17052;SDS011;8643;48.824;11.422;2022-08-05T03:39:18;5.68;;;4.95;;
17052;SDS011;8643;48.824;11.422;2022-08-05T03:41:53;7.97;;;5.03;;
17052;SDS011;8643;48.824;11.422;2022-08-05T03:44:21;4.75;;;4.35;;
17052;SDS011;8643;48.824;11.422;2022-08-05T03:46:54;4.78;;;4.28;;
17052;SDS011;8643;48.824;11.422;2022-08-05T03:49:24;4.75;;;4.35;;
17052;SDS011;8643;48.824;11.422;2022-08-05T03:52:16;4.88;;;4.45;;
17052;SDS011;8643;48.824;11.422;2022-08-05T03:55:14;6.93;;;4.50;;
17052;SDS011;8643;48.824;11.422;2022-08-05T03:58:11;6.40;;;4.95;;
17052;SDS011;8643;48.824;11.422;2022-08-05T04:00:54;5.57;;;4.80;;
17052;SDS011;8643;48.824;11.422;2022-08-05T04:03:26;6.22;;;5.07;;
17052;SDS011;8643;48.824;11.422;2022-08-05T04:06:05;7.63;;;4.68;;
17052;SDS011;8643;48.824;11.422;2022-08-05T04:08:34;7.57;;;4.85;;
17052;SDS011;8643;48.824;11.422;2022-08-05T04:11:05;5.55;;;4.80;;
17052;SDS011;8643;48.824;11.422;2022-08-05T04:13:37;7.78;;;4.65;;
17052;SDS011;8643;48.824;11.422;2022-08-05T04:16:16;8.50;;;5.03;;
17052;SDS011;8643;48.824;11.422;2022-08-05T04:18:53;7.85;;;4.80;;
17052;SDS011;8643;48.824;11.422;2022-08-05T04:21:24;8.05;;;5.07;;
17052;SDS011;8643;48.824;11.422;2022-08-05T04:24:13;5.57;;;5.03;;
17052;SDS011;8643;48.824;11.422;2022-08-05T04:26:48;5.97;;;5.03;;
17052;SDS011;8643;48.824;11.422;2022-08-05T04:29:16;6.45;;;5.50;;
17052;SDS011;8643;48.824;11.422;2022-08-05T04:31:45;7.13;;;5.00;;
17052;SDS011;8643;48.824;11.422;2022-08-05T04:34:15;5.20;;;4.70;;
17052;SDS011;8643;48.824;11.422;2022-08-05T04:37:01;6.60;;;5.32;;
17052;SDS011;8643;48.824;11.422;2022-08-05T04:39:30;6.25;;;4.72;;
17052;SDS011;8643;48.824;11.422;2022-08-05T04:42:00;7.13;;;4.82;;
17052;SDS011;8643;48.824;11.422;2022-08-05T04:44:29;7.10;;;4.90;;
17052;SDS011;8643;48.824;11.422;2022-08-05T04:46:58;9.00;;;5.07;;
17052;SDS011;8643;48.824;11.422;2022-08-05T04:49:35;5.82;;;5.10;;
17052;SDS011;8643;48.824;11.422;2022-08-05T04:52:26;5.25;;;4.53;;
17052;SDS011;8643;48.824;11.422;2022-08-05T04:54:59;6.75;;;4.90;;
17052;SDS011;8643;48.824;11.422;2022-08-05T04:57:42;5.65;;;4.70;;
17052;SDS011;8643;48.824;11.422;2022-08-05T05:00:17;6.72;;;4.13;;
17052;SDS011;8643;48.824;11.422;2022-08-05T05:02:49;5.22;;;4.72;;
17052;SDS011;8643;48.824;11.422;2022-08-05T05:05:18;8.23;;;5.05;;
17052;SDS011;8643;48.824;11.422;2022-08-05T05:07:56;7.50;;;4.85;;
17052;SDS011;8643;48.824;11.422;2022-08-05T05:10:29;7.35;;;5.10;;
17052;SDS011;8643;48.824;11.422;2022-08-05T05:12:59;7.90;;;4.90;;
17052;SDS011;8643;48.824;11.422;2022-08-05T05:15:30;5.50;;;4.40;;
17052;SDS011;8643;48.824;11.422;2022-08-05T05:18:19;5.50;;;4.88;;
17052;SDS011;8643;48.824;11.422;2022-08-05T05:20:59;6.03;;;4.90;;
17052;SDS011;8643;48.824;11.422;2022-08-05T05:23:32;5.20;;;4.70;;
17052;SDS011;8643;48.824;11.422;2022-08-05T05:26:20;4.97;;;4.57;;
17052;SDS011;8643;48.824;11.422;2022-08-05T05:28:58;6.75;;;4.80;;
17052;SDS011;8643;48.824;11.422;2022-08-05T05:31:40;8.05;;;4.65;;
17052;SDS011;8643;48.824;11.422;2022-08-05T05:34:12;8.35;;;4.68;;
17052;SDS011;8643;48.824;11.422;2022-08-05T05:36:41;6.10;;;4.80;;
17052;SDS011;8643;48.824;11.422;2022-08-05T05:39:13;5.72;;;4.60;;
17052;SDS011;8643;48.824;11.422;2022-08-05T05:41:44;10.10;;;4.75;;
17052;SDS011;8643;48.824;11.422;2022-08-05T05:44:19;7.00;;;4.88;;
17052;SDS011;8643;48.824;11.422;2022-08-05T05:47:03;5.30;;;4.80;;
17052;SDS011;8643;48.824;11.422;2022-08-05T05:49:53;5.55;;;5.00;;
17052;SDS011;8643;48.824;11.422;2022-08-05T05:52:29;5.60;;;4.93;;
17052;SDS011;8643;48.824;11.422;2022-08-05T05:55:08;8.00;;;5.60;;
17052;SDS011;8643;48.824;11.422;2022-08-05T05:57:39;6.25;;;5.50;;
17052;SDS011;8643;48.824;11.422;2022-08-05T06:00:18;7.85;;;5.28;;
17052;SDS011;8643;48.824;11.422;2022-08-05T06:02:59;8.52;;;5.45;;
17052;SDS011;8643;48.824;11.422;2022-08-05T06:05:48;8.65;;;5.70;;
17052;SDS011;8643;48.824;11.422;2022-08-05T06:08:21;11.10;;;5.60;;
17052;SDS011;8643;48.824;11.422;2022-08-05T06:10:59;10.48;;;6.53;;
17052;SDS011;8643;48.824;11.422;2022-08-05T06:13:29;10.07;;;6.40;;
17052;SDS011;8643;48.824;11.422;2022-08-05T06:16:15;10.63;;;6.05;;
17052;SDS011;8643;48.824;11.422;2022-08-05T06:18:57;12.60;;;6.18;;
17052;SDS011;8643;48.824;11.422;2022-08-05T06:21:27;22.48;;;5.80;;
17052;SDS011;8643;48.824;11.422;2022-08-05T06:24:03;11.20;;;6.03;;
17052;SDS011;8643;48.824;11.422;2022-08-05T06:26:39;7.35;;;5.60;;
17052;SDS011;8643;48.824;11.422;2022-08-05T06:29:17;8.85;;;5.82;;
17052;SDS011;8643;48.824;11.422;2022-08-05T06:32:07;8.25;;;5.60;;
17052;SDS011;8643;48.824;11.422;2022-08-05T06:34:52;7.00;;;6.00;;
17052;SDS011;8643;48.824;11.422;2022-08-05T06:37:23;9.43;;;5.75;;
17052;SDS011;8643;48.824;11.422;2022-08-05T06:40:12;13.77;;;6.05;;
17052;SDS011;8643;48.824;11.422;2022-08-05T06:42:47;16.73;;;5.97;;
17052;SDS011;8643;48.824;11.422;2022-08-05T06:45:17;11.30;;;6.30;;
17052;SDS011;8643;48.824;11.422;2022-08-05T06:48:07;13.75;;;5.80;;
17052;SDS011;8643;48.824;11.422;2022-08-05T06:50:55;15.15;;;6.72;;
17052;SDS011;8643;48.824;11.422;2022-08-05T06:53:25;15.38;;;5.60;;
17052;SDS011;8643;48.824;11.422;2022-08-05T06:55:55;11.45;;;6.28;;
17052;SDS011;8643;48.824;11.422;2022-08-05T06:58:25;7.32;;;5.50;;
17052;SDS011;8643;48.824;11.422;2022-08-05T07:01:01;7.72;;;5.47;;
17052;SDS011;8643;48.824;11.422;2022-08-05T07:03:32;6.70;;;5.45;;
17052;SDS011;8643;48.824;11.422;2022-08-05T07:06:02;7.50;;;6.05;;
17052;SDS011;8643;48.824;11.422;2022-08-05T07:08:40;10.43;;;5.60;;
17052;SDS011;8643;48.824;11.422;2022-08-05T07:11:17;7.50;;;5.05;;
17052;SDS011;8643;48.824;11.422;2022-08-05T07:13:51;6.47;;;5.13;;
17052;SDS011;8643;48.824;11.422;2022-08-05T07:16:46;11.30;;;5.50;;
17052;SDS011;8643;48.824;11.422;2022-08-05T07:19:38;7.32;;;5.22;;
17052;SDS011;8643;48.824;11.422;2022-08-05T07:22:26;8.65;;;4.90;;
17052;SDS011;8643;48.824;11.422;2022-08-05T07:24:59;6.40;;;4.78;;
17052;SDS011;8643;48.824;11.422;2022-08-05T07:27:48;7.47;;;4.57;;
17052;SDS011;8643;48.824;11.422;2022-08-05T07:30:29;8.13;;;4.50;;
17052;SDS011;8643;48.824;11.422;2022-08-05T07:33:00;7.28;;;4.32;;
17052;SDS011;8643;48.824;11.422;2022-08-05T07:35:34;8.07;;;4.10;;
17052;SDS011;8643;48.824;11.422;2022-08-05T07:38:23;8.18;;;4.07;;
17052;SDS011;8643;48.824;11.422;2022-08-05T07:41:01;7.65;;;3.83;;
17052;SDS011;8643;48.824;11.422;2022-08-05T07:43:51;6.38;;;3.60;;
17052;SDS011;8643;48.824;11.422;2022-08-05T07:46:24;7.60;;;3.60;;
17052;SDS011;8643;48.824;11.422;2022-08-05T07:48:56;12.18;;;4.00;;
17052;SDS011;8643;48.824;11.422;2022-08-05T07:51:35;7.43;;;3.70;;
17052;SDS011;8643;48.824;11.422;2022-08-05T07:54:19;7.25;;;3.90;;
17052;SDS011;8643;48.824;11.422;2022-08-05T07:56:59;5.00;;;3.50;;
17052;SDS011;8643;48.824;11.422;2022-08-05T07:59:48;8.35;;;3.63;;
17052;SDS011;8643;48.824;11.422;2022-08-05T08:02:23;10.00;;;3.42;;
17052;SDS011;8643;48.824;11.422;2022-08-05T08:05:14;6.85;;;3.22;;
17052;SDS011;8643;48.824;11.422;2022-08-05T08:07:42;6.78;;;3.50;;
17052;SDS011;8643;48.824;11.422;2022-08-05T08:10:26;6.35;;;3.80;;
17052;SDS011;8643;48.824;11.422;2022-08-05T08:12:55;10.10;;;2.83;;
17052;SDS011;8643;48.824;11.422;2022-08-05T08:15:25;5.70;;;2.95;;
17052;SDS011;8643;48.824;11.422;2022-08-05T08:18:15;9.50;;;3.25;;
17052;SDS011;8643;48.824;11.422;2022-08-05T08:20:46;6.32;;;3.00;;
17052;SDS011;8643;48.824;11.422;2022-08-05T08:23:29;9.98;;;3.08;;
17052;SDS011;8643;48.824;11.422;2022-08-05T08:26:18;8.25;;;2.97;;
17052;SDS011;8643;48.824;11.422;2022-08-05T08:28:55;3.97;;;2.60;;
17052;SDS011;8643;48.824;11.422;2022-08-05T08:31:46;5.60;;;3.08;;
17052;SDS011;8643;48.824;11.422;2022-08-05T08:34:16;7.07;;;2.75;;
17052;SDS011;8643;48.824;11.422;2022-08-05T08:36:58;5.50;;;2.70;;
17052;SDS011;8643;48.824;11.422;2022-08-05T08:39:30;3.42;;;2.80;;
17052;SDS011;8643;48.824;11.422;2022-08-05T08:42:03;5.72;;;3.03;;
17052;SDS011;8643;48.824;11.422;2022-08-05T08:44:55;6.82;;;2.80;;
17052;SDS011;8643;48.824;11.422;2022-08-05T08:47:46;7.93;;;2.67;;
17052;SDS011;8643;48.824;11.422;2022-08-05T08:50:39;9.18;;;2.83;;
17052;SDS011;8643;48.824;11.422;2022-08-05T08:53:33;3.13;;;2.22;;
17052;SDS011;8643;48.824;11.422;2022-08-05T08:56:10;7.00;;;2.67;;
17052;SDS011;8643;48.824;11.422;2022-08-05T08:58:43;6.72;;;2.45;;
17052;SDS011;8643;48.824;11.422;2022-08-05T09:01:14;7.80;;;2.58;;
17052;SDS011;8643;48.824;11.422;2022-08-05T09:03:44;4.45;;;2.20;;
17052;SDS011;8643;48.824;11.422;2022-08-05T09:06:22;8.27;;;2.40;;
17052;SDS011;8643;48.824;11.422;2022-08-05T09:08:55;6.78;;;2.28;;
17052;SDS011;8643;48.824;11.422;2022-08-05T09:11:26;5.55;;;2.13;;
17052;SDS011;8643;48.824;11.422;2022-08-05T09:14:15;7.70;;;2.40;;
17052;SDS011;8643;48.824;11.422;2022-08-05T09:17:04;4.60;;;2.15;;
17052;SDS011;8643;48.824;11.422;2022-08-05T09:19:55;3.42;;;2.22;;
17052;SDS011;8643;48.824;11.422;2022-08-05T09:23:01;5.03;;;2.40;;
17052;SDS011;8643;48.824;11.422;2022-08-05T09:25:46;4.03;;;2.33;;
17052;SDS011;8643;48.824;11.422;2022-08-05T09:28:30;10.80;;;2.95;;
17052;SDS011;8643;48.824;11.422;2022-08-05T09:31:01;4.00;;;2.08;;
17052;SDS011;8643;48.824;11.422;2022-08-05T09:33:53;2.83;;;2.20;;
17052;SDS011;8643;48.824;11.422;2022-08-05T09:36:36;7.38;;;2.50;;
17052;SDS011;8643;48.824;11.422;2022-08-05T09:39:23;4.72;;;2.38;;
17052;SDS011;8643;48.824;11.422;2022-08-05T09:42:07;4.05;;;2.33;;
17052;SDS011;8643;48.824;11.422;2022-08-05T09:44:43;4.47;;;2.40;;
17052;SDS011;8643;48.824;11.422;2022-08-05T09:47:16;3.80;;;2.40;;
17052;SDS011;8643;48.824;11.422;2022-08-05T09:49:47;5.00;;;2.20;;
17052;SDS011;8643;48.824;11.422;2022-08-05T09:52:28;3.53;;;2.00;;
17052;SDS011;8643;48.824;11.422;2022-08-05T09:55:02;4.47;;;2.30;;
17052;SDS011;8643;48.824;11.422;2022-08-05T09:57:53;5.18;;;2.10;;
17052;SDS011;8643;48.824;11.422;2022-08-05T10:00:25;6.80;;;2.20;;
17052;SDS011;8643;48.824;11.422;2022-08-05T10:02:56;2.58;;;2.10;;
17052;SDS011;8643;48.824;11.422;2022-08-05T10:05:25;2.92;;;1.98;;
17052;SDS011;8643;48.824;11.422;2022-08-05T10:07:59;6.10;;;2.17;;
17052;SDS011;8643;48.824;11.422;2022-08-05T10:10:51;4.22;;;2.17;;
17052;SDS011;8643;48.824;11.422;2022-08-05T10:13:27;3.20;;;2.10;;
17052;SDS011;8643;48.824;11.422;2022-08-05T10:16:29;2.83;;;2.30;;
17052;SDS011;8643;48.824;11.422;2022-08-05T10:19:18;5.28;;;2.40;;
17052;SDS011;8643;48.824;11.422;2022-08-05T10:22:07;3.15;;;2.13;;
17052;SDS011;8643;48.824;11.422;2022-08-05T10:24:55;4.82;;;2.28;;
17052;SDS011;8643;48.824;11.422;2022-08-05T10:27:25;3.42;;;2.20;;
17052;SDS011;8643;48.824;11.422;2022-08-05T10:30:16;6.88;;;2.03;;
17052;SDS011;8643;48.824;11.422;2022-08-05T10:33:05;7.18;;;2.30;;
17052;SDS011;8643;48.824;11.422;2022-08-05T10:35:40;3.83;;;2.20;;
17052;SDS011;8643;48.824;11.422;2022-08-05T10:38:10;2.65;;;1.90;;
17052;SDS011;8643;48.824;11.422;2022-08-05T10:40:42;10.18;;;2.20;;
17052;SDS011;8643;48.824;11.422;2022-08-05T10:43:27;3.03;;;2.38;;
17052;SDS011;8643;48.824;11.422;2022-08-05T10:46:08;4.05;;;1.98;;
17052;SDS011;8643;48.824;11.422;2022-08-05T10:48:39;4.03;;;2.00;;
17052;SDS011;8643;48.824;11.422;2022-08-05T10:51:23;3.05;;;2.20;;
17052;SDS011;8643;48.824;11.422;2022-08-05T10:53:55;6.45;;;1.90;;
17052;SDS011;8643;48.824;11.422;2022-08-05T10:56:46;2.92;;;1.77;;
17052;SDS011;8643;48.824;11.422;2022-08-05T10:59:25;3.42;;;2.00;;
17052;SDS011;8643;48.824;11.422;2022-08-05T11:02:15;2.78;;;1.73;;
17052;SDS011;8643;48.824;11.422;2022-08-05T11:05:04;5.18;;;1.70;;
17052;SDS011;8643;48.824;11.422;2022-08-05T11:10:34;3.35;;;1.88;;
17052;SDS011;8643;48.824;11.422;2022-08-05T11:13:38;3.35;;;1.80;;
17052;SDS011;8643;48.824;11.422;2022-08-05T11:16:24;2.80;;;1.90;;
17052;SDS011;8643;48.824;11.422;2022-08-05T11:19:27;3.55;;;2.05;;
17052;SDS011;8643;48.824;11.422;2022-08-05T11:25:26;3.67;;;1.88;;
17052;SDS011;8643;48.824;11.422;2022-08-05T11:31:27;5.25;;;2.05;;
17052;SDS011;8643;48.824;11.422;2022-08-05T11:34:20;2.35;;;1.98;;
17052;SDS011;8643;48.824;11.422;2022-08-05T11:37:03;2.42;;;2.00;;
17052;SDS011;8643;48.824;11.422;2022-08-05T11:39:52;2.92;;;1.70;;
17052;SDS011;8643;48.824;11.422;2022-08-05T11:42:30;3.65;;;1.80;;
17052;SDS011;8643;48.824;11.422;2022-08-05T11:45:06;3.22;;;1.80;;
17052;SDS011;8643;48.824;11.422;2022-08-05T11:47:57;2.40;;;1.77;;
17052;SDS011;8643;48.824;11.422;2022-08-05T11:50:26;5.40;;;1.98;;
17052;SDS011;8643;48.824;11.422;2022-08-05T11:52:54;3.15;;;1.65;;
17052;SDS011;8643;48.824;11.422;2022-08-05T11:55:24;8.25;;;1.83;;
17052;SDS011;8643;48.824;11.422;2022-08-05T11:58:01;1.88;;;1.70;;
17052;SDS011;8643;48.824;11.422;2022-08-05T12:00:37;2.55;;;1.90;;
17052;SDS011;8643;48.824;11.422;2022-08-05T12:03:18;3.10;;;1.92;;
17052;SDS011;8643;48.824;11.422;2022-08-05T12:05:57;4.60;;;1.80;;
17052;SDS011;8643;48.824;11.422;2022-08-05T12:08:28;3.10;;;1.70;;
17052;SDS011;8643;48.824;11.422;2022-08-05T12:10:58;3.53;;;1.70;;
17052;SDS011;8643;48.824;11.422;2022-08-05T12:13:31;3.72;;;1.90;;
17052;SDS011;8643;48.824;11.422;2022-08-05T12:16:16;2.90;;;1.70;;
17052;SDS011;8643;48.824;11.422;2022-08-05T12:18:53;2.15;;;1.60;;
17052;SDS011;8643;48.824;11.422;2022-08-05T12:21:22;2.25;;;1.60;;
17052;SDS011;8643;48.824;11.422;2022-08-05T12:23:59;5.38;;;1.75;;
17052;SDS011;8643;48.824;11.422;2022-08-05T12:26:33;3.60;;;1.70;;
17052;SDS011;8643;48.824;11.422;2022-08-05T12:29:05;2.42;;;1.60;;
17052;SDS011;8643;48.824;11.422;2022-08-05T12:31:44;1.92;;;1.65;;
17052;SDS011;8643;48.824;11.422;2022-08-05T12:34:20;2.03;;;1.60;;
17052;SDS011;8643;48.824;11.422;2022-08-05T12:36:54;3.42;;;1.75;;
17052;SDS011;8643;48.824;11.422;2022-08-05T12:39:26;3.00;;;1.90;;
17052;SDS011;8643;48.824;11.422;2022-08-05T12:42:07;3.53;;;1.60;;
17052;SDS011;8643;48.824;11.422;2022-08-05T12:44:40;3.50;;;1.70;;
17052;SDS011;8643;48.824;11.422;2022-08-05T12:47:13;1.95;;;1.80;;
17052;SDS011;8643;48.824;11.422;2022-08-05T12:49:57;2.00;;;1.70;;
17052;SDS011;8643;48.824;11.422;2022-08-05T12:52:31;2.67;;;1.70;;
17052;SDS011;8643;48.824;11.422;2022-08-05T12:55:17;2.45;;;1.58;;
17052;SDS011;8643;48.824;11.422;2022-08-05T12:57:51;2.72;;;1.60;;
17052;SDS011;8643;48.824;11.422;2022-08-05T13:00:42;3.78;;;2.00;;
17052;SDS011;8643;48.824;11.422;2022-08-05T13:03:33;2.30;;;1.80;;
17052;SDS011;8643;48.824;11.422;2022-08-05T13:06:10;2.85;;;1.83;;
17052;SDS011;8643;48.824;11.422;2022-08-05T13:08:42;2.30;;;1.98;;
17052;SDS011;8643;48.824;11.422;2022-08-05T13:11:18;3.08;;;1.60;;
17052;SDS011;8643;48.824;11.422;2022-08-05T13:14:09;4.07;;;1.90;;
17052;SDS011;8643;48.824;11.422;2022-08-05T13:17:01;3.83;;;1.90;;
17052;SDS011;8643;48.824;11.422;2022-08-05T13:19:35;1.77;;;1.63;;
17052;SDS011;8643;48.824;11.422;2022-08-05T13:22:20;1.80;;;1.70;;
17052;SDS011;8643;48.824;11.422;2022-08-05T13:24:55;3.85;;;1.80;;
17052;SDS011;8643;48.824;11.422;2022-08-05T13:27:31;1.95;;;1.63;;
17052;SDS011;8643;48.824;11.422;2022-08-05T13:30:04;3.75;;;1.88;;
17052;SDS011;8643;48.824;11.422;2022-08-05T13:32:55;5.20;;;2.08;;
17052;SDS011;8643;48.824;11.422;2022-08-05T13:35:26;3.85;;;1.95;;
17052;SDS011;8643;48.824;11.422;2022-08-05T13:38:16;2.08;;;1.77;;
17052;SDS011;8643;48.824;11.422;2022-08-05T13:40:56;3.00;;;1.70;;
17052;SDS011;8643;48.824;11.422;2022-08-05T13:43:25;3.25;;;1.95;;
17052;SDS011;8643;48.824;11.422;2022-08-05T13:46:14;2.50;;;1.70;;
17052;SDS011;8643;48.824;11.422;2022-08-05T13:49:03;3.45;;;1.90;;
17052;SDS011;8643;48.824;11.422;2022-08-05T13:51:36;2.90;;;1.90;;
17052;SDS011;8643;48.824;11.422;2022-08-05T13:54:08;2.85;;;1.83;;
17052;SDS011;8643;48.824;11.422;2022-08-05T13:56:38;2.20;;;1.65;;
17052;SDS011;8643;48.824;11.422;2022-08-05T13:59:16;2.38;;;1.83;;
17052;SDS011;8643;48.824;11.422;2022-08-05T14:01:50;2.78;;;1.83;;
17052;SDS011;8643;48.824;11.422;2022-08-05T14:04:24;2.15;;;1.90;;
17052;SDS011;8643;48.824;11.422;2022-08-05T14:07:17;2.80;;;1.77;;
17052;SDS011;8643;48.824;11.422;2022-08-05T14:10:10;2.67;;;2.00;;
17052;SDS011;8643;48.824;11.422;2022-08-05T14:12:44;2.60;;;1.77;;
17052;SDS011;8643;48.824;11.422;2022-08-05T14:15:14;2.45;;;1.65;;
17052;SDS011;8643;48.824;11.422;2022-08-05T14:18:04;4.15;;;2.20;;
17052;SDS011;8643;48.824;11.422;2022-08-05T14:20:43;2.17;;;1.90;;
17052;SDS011;8643;48.824;11.422;2022-08-05T14:23:12;2.63;;;2.10;;
17052;SDS011;8643;48.824;11.422;2022-08-05T14:25:53;5.55;;;1.88;;
17052;SDS011;8643;48.824;11.422;2022-08-05T14:28:24;3.60;;;1.80;;
17052;SDS011;8643;48.824;11.422;2022-08-05T14:30:53;2.30;;;1.90;;
17052;SDS011;8643;48.824;11.422;2022-08-05T14:33:22;3.22;;;2.00;;
17052;SDS011;8643;48.824;11.422;2022-08-05T14:35:50;3.80;;;1.83;;
17052;SDS011;8643;48.824;11.422;2022-08-05T14:38:20;2.05;;;1.80;;
17052;SDS011;8643;48.824;11.422;2022-08-05T14:41:00;3.63;;;1.92;;
17052;SDS011;8643;48.824;11.422;2022-08-05T14:43:33;2.25;;;1.70;;
17052;SDS011;8643;48.824;11.422;2022-08-05T14:46:23;4.30;;;2.00;;
17052;SDS011;8643;48.824;11.422;2022-08-05T14:48:56;2.17;;;1.70;;
17052;SDS011;8643;48.824;11.422;2022-08-05T14:51:33;2.30;;;1.80;;
17052;SDS011;8643;48.824;11.422;2022-08-05T14:54:03;4.00;;;1.90;;
17052;SDS011;8643;48.824;11.422;2022-08-05T14:56:54;3.20;;;1.90;;
17052;SDS011;8643;48.824;11.422;2022-08-05T14:59:22;3.20;;;1.90;;
17052;SDS011;8643;48.824;11.422;2022-08-05T15:02:00;2.50;;;1.83;;
17052;SDS011;8643;48.824;11.422;2022-08-05T15:04:40;2.20;;;2.00;;
17052;SDS011;8643;48.824;11.422;2022-08-05T15:07:10;2.88;;;1.90;;
17052;SDS011;8643;48.824;11.422;2022-08-05T15:09:59;4.20;;;2.38;;
17052;SDS011;8643;48.824;11.422;2022-08-05T15:12:30;3.30;;;2.10;;
17052;SDS011;8643;48.824;11.422;2022-08-05T15:15:19;3.65;;;1.98;;
17052;SDS011;8643;48.824;11.422;2022-08-05T15:18:07;2.70;;;2.03;;
17052;SDS011;8643;48.824;11.422;2022-08-05T15:20:39;4.35;;;1.95;;
17052;SDS011;8643;48.824;11.422;2022-08-05T15:23:11;3.38;;;2.10;;
17052;SDS011;8643;48.824;11.422;2022-08-05T15:25:41;3.50;;;2.10;;
17052;SDS011;8643;48.824;11.422;2022-08-05T15:28:22;4.72;;;2.17;;
17052;SDS011;8643;48.824;11.422;2022-08-05T15:30:53;3.45;;;2.10;;
17052;SDS011;8643;48.824;11.422;2022-08-05T15:33:22;2.55;;;2.00;;
17052;SDS011;8643;48.824;11.422;2022-08-05T15:36:10;2.20;;;2.00;;
17052;SDS011;8643;48.824;11.422;2022-08-05T15:38:50;4.63;;;2.08;;
17052;SDS011;8643;48.824;11.422;2022-08-05T15:41:38;2.30;;;2.00;;
17052;SDS011;8643;48.824;11.422;2022-08-05T15:44:23;4.80;;;2.13;;
17052;SDS011;8643;48.824;11.422;2022-08-05T15:46:53;4.30;;;2.35;;
17052;SDS011;8643;48.824;11.422;2022-08-05T15:49:22;3.03;;;2.20;;
17052;SDS011;8643;48.824;11.422;2022-08-05T15:52:11;2.88;;;1.80;;
17052;SDS011;8643;48.824;11.422;2022-08-05T15:54:42;2.97;;;2.22;;
17052;SDS011;8643;48.824;11.422;2022-08-05T15:57:11;2.38;;;1.80;;
17052;SDS011;8643;48.824;11.422;2022-08-05T15:59:43;2.08;;;1.88;;
17052;SDS011;8643;48.824;11.422;2022-08-05T16:02:11;2.97;;;2.03;;
17052;SDS011;8643;48.824;11.422;2022-08-05T16:04:50;2.67;;;2.00;;
17052;SDS011;8643;48.824;11.422;2022-08-05T16:07:19;2.20;;;2.00;;